createdAt,value
2018-07-05T00:00:08.811Z,988.03
2018-07-05T00:01:08.816Z,988.02
2018-07-05T00:02:08.812Z,988.02
2018-07-05T00:03:08.817Z,988
2018-07-05T00:04:08.823Z,987.98
2018-07-05T00:05:08.823Z,988.01
2018-07-05T00:06:08.821Z,987.99
2018-07-05T00:07:08.843Z,988.02
2018-07-05T00:08:08.826Z,987.97
2018-07-05T00:09:08.827Z,988.01
2018-07-05T00:10:08.832Z,987.97
2018-07-05T00:11:08.830Z,987.99
2018-07-05T00:12:08.838Z,987.93
2018-07-05T00:13:08.834Z,987.93
2018-07-05T00:14:08.839Z,987.95
2018-07-05T00:15:08.841Z,987.99
2018-07-05T00:16:08.839Z,988.01
2018-07-05T00:17:08.839Z,988
2018-07-05T00:18:08.861Z,987.98
2018-07-05T00:19:08.846Z,988.01
2018-07-05T00:20:08.849Z,988.01
2018-07-05T00:21:08.848Z,987.93
2018-07-05T00:22:08.849Z,987.97
2018-07-05T00:23:08.854Z,987.98
2018-07-05T00:24:08.857Z,987.92
2018-07-05T00:25:08.860Z,987.93
2018-07-05T00:26:08.876Z,987.97
2018-07-05T00:27:08.860Z,987.93
2018-07-05T00:28:08.868Z,987.98
2018-07-05T00:29:08.884Z,987.98
2018-07-05T00:30:08.877Z,987.95
2018-07-05T00:31:08.870Z,987.94
2018-07-05T00:32:08.874Z,987.98
2018-07-05T00:33:08.881Z,987.95
2018-07-05T00:34:08.892Z,987.95
2018-07-05T00:35:08.892Z,987.97
2018-07-05T00:36:08.886Z,987.98
2018-07-05T00:37:08.878Z,987.95
2018-07-05T00:38:08.893Z,987.98
2018-07-05T00:39:08.881Z,987.94
2018-07-05T00:40:08.898Z,987.95
2018-07-05T00:41:08.891Z,987.99
2018-07-05T00:42:08.894Z,988.01
2018-07-05T00:43:08.896Z,987.99
2018-07-05T00:44:08.904Z,987.98
2018-07-05T00:45:08.901Z,987.99
2018-07-05T00:46:08.893Z,988.02
2018-07-05T00:47:08.895Z,988.01
2018-07-05T00:48:08.899Z,988.05
2018-07-05T00:49:09.005Z,987.99
2018-07-05T00:50:08.909Z,988
2018-07-05T00:51:08.916Z,987.93
2018-07-05T00:52:08.905Z,987.96
2018-07-05T00:53:08.906Z,987.93
2018-07-05T00:54:08.921Z,987.89
2018-07-05T00:55:08.920Z,987.85
2018-07-05T00:56:08.910Z,987.91
2018-07-05T00:57:08.916Z,987.89
2018-07-05T00:58:08.911Z,987.91
2018-07-05T00:59:08.920Z,987.88
2018-07-05T01:00:08.923Z,987.85
2018-07-05T01:01:08.925Z,987.83
2018-07-05T01:02:08.922Z,987.81
2018-07-05T01:03:08.934Z,987.84
2018-07-05T01:04:08.928Z,987.82
2018-07-05T01:05:08.927Z,987.84
2018-07-05T01:06:08.931Z,987.82
2018-07-05T01:07:08.935Z,987.85
2018-07-05T01:08:08.936Z,987.82
2018-07-05T01:09:08.955Z,987.85
2018-07-05T01:10:09.734Z,987.82
2018-07-05T01:11:08.934Z,987.76
2018-07-05T01:12:08.940Z,987.78
2018-07-05T01:13:08.941Z,987.77
2018-07-05T01:14:08.960Z,987.75
2018-07-05T01:15:08.943Z,987.83
2018-07-05T01:16:08.956Z,987.77
2018-07-05T01:17:08.958Z,987.85
2018-07-05T01:18:08.968Z,987.89
2018-07-05T01:19:08.957Z,987.93
2018-07-05T01:20:08.963Z,987.93
2018-07-05T01:21:08.959Z,987.91
2018-07-05T01:22:08.955Z,987.94
2018-07-05T01:23:08.973Z,987.96
2018-07-05T01:24:08.970Z,987.97
2018-07-05T01:25:08.967Z,987.97
2018-07-05T01:26:08.968Z,987.97
2018-07-05T01:27:08.969Z,987.97
2018-07-05T01:28:08.967Z,988
2018-07-05T01:29:08.987Z,987.97
2018-07-05T01:30:08.975Z,988
2018-07-05T01:31:08.977Z,988.01
2018-07-05T01:32:08.977Z,988.02
2018-07-05T01:33:08.977Z,988.02
2018-07-05T01:34:08.975Z,988.05
2018-07-05T01:35:08.980Z,988.03
2018-07-05T01:36:08.984Z,988.06
2018-07-05T01:37:08.994Z,988.06
2018-07-05T01:38:08.993Z,988.02
2018-07-05T01:39:09.011Z,988.03
2018-07-05T01:40:08.992Z,988.05
2018-07-05T01:41:08.995Z,988.01
2018-07-05T01:42:09.001Z,987.98
2018-07-05T01:43:09.010Z,988.01
2018-07-05T01:44:08.988Z,988
2018-07-05T01:45:08.997Z,988.03
2018-07-05T01:46:09.000Z,988.04
2018-07-05T01:47:08.999Z,988.09
2018-07-05T01:48:08.995Z,988.07
2018-07-05T01:49:08.995Z,988.13
2018-07-05T01:50:08.996Z,988.11
2018-07-05T01:51:09.002Z,988.08
2018-07-05T01:52:09.018Z,988.17
2018-07-05T01:53:09.002Z,988.09
2018-07-05T01:54:09.003Z,988.14
2018-07-05T01:55:09.019Z,988.08
2018-07-05T01:56:09.030Z,988.09
2018-07-05T01:57:09.028Z,988.06
2018-07-05T01:58:09.011Z,988.04
2018-07-05T01:59:09.018Z,988.07
2018-07-05T02:00:09.022Z,987.99
2018-07-05T02:01:09.035Z,988.05
2018-07-05T02:02:09.025Z,988.07
2018-07-05T02:03:09.026Z,988.13
2018-07-05T02:04:09.028Z,988.13
2018-07-05T02:05:09.028Z,988.12
2018-07-05T02:06:09.028Z,988.13
2018-07-05T02:07:09.030Z,988.14
2018-07-05T02:08:09.025Z,988.16
2018-07-05T02:09:09.026Z,988.13
2018-07-05T02:10:09.042Z,988.11
2018-07-05T02:11:09.027Z,988.1
2018-07-05T02:12:09.030Z,988.09
2018-07-05T02:13:09.031Z,988.09
2018-07-05T02:14:09.044Z,988.08
2018-07-05T02:15:09.036Z,988.07
2018-07-05T02:16:10.140Z,988.07
2018-07-05T02:17:09.035Z,988.07
2018-07-05T02:18:09.060Z,988.1
2018-07-05T02:19:09.038Z,988.1
2018-07-05T02:20:09.044Z,988.1
2018-07-05T02:21:09.053Z,988.15
2018-07-05T02:22:09.045Z,988.14
2018-07-05T02:23:09.045Z,988.17
2018-07-05T02:24:09.066Z,988.19
2018-07-05T02:25:09.047Z,988.18
2018-07-05T02:26:09.079Z,988.16
2018-07-05T02:27:09.060Z,988.17
2018-07-05T02:28:09.059Z,988.13
2018-07-05T02:29:09.066Z,988.04
2018-07-05T02:30:09.065Z,988.07
2018-07-05T02:31:09.058Z,988.07
2018-07-05T02:32:09.063Z,988.01
2018-07-05T02:33:09.069Z,988.04
2018-07-05T02:34:09.070Z,988.03
2018-07-05T02:35:09.071Z,988.01
2018-07-05T02:36:09.074Z,987.99
2018-07-05T02:37:09.084Z,988.03
2018-07-05T02:38:09.074Z,988.02
2018-07-05T02:39:09.088Z,988.02
2018-07-05T02:40:09.091Z,988.05
2018-07-05T02:41:09.073Z,988.05
2018-07-05T02:42:09.088Z,988.03
2018-07-05T02:43:09.130Z,987.98
2018-07-05T02:44:09.076Z,987.99
2018-07-05T02:45:09.078Z,987.97
2018-07-05T02:46:09.095Z,987.99
2018-07-05T02:47:09.105Z,987.95
2018-07-05T02:48:09.087Z,987.95
2018-07-05T02:49:09.092Z,987.92
2018-07-05T02:50:09.099Z,987.9
2018-07-05T02:51:09.099Z,987.88
2018-07-05T02:52:09.102Z,987.91
2018-07-05T02:53:09.094Z,987.88
2018-07-05T02:54:09.103Z,987.89
2018-07-05T02:55:09.095Z,987.89
2018-07-05T02:56:09.102Z,987.89
2018-07-05T02:57:09.099Z,987.82
2018-07-05T02:58:09.118Z,987.87
2018-07-05T02:59:09.110Z,987.81
2018-07-05T03:00:09.112Z,987.82
2018-07-05T03:01:09.099Z,987.86
2018-07-05T03:02:09.103Z,987.84
2018-07-05T03:03:09.105Z,987.87
2018-07-05T03:04:09.111Z,987.82
2018-07-05T03:05:09.108Z,987.81
2018-07-05T03:06:09.104Z,987.83
2018-07-05T03:07:09.117Z,987.83
2018-07-05T03:08:09.125Z,987.77
2018-07-05T03:09:09.144Z,987.79
2018-07-05T03:10:09.135Z,987.77
2018-07-05T03:11:09.119Z,987.77
2018-07-05T03:12:09.122Z,987.75
2018-07-05T03:13:09.117Z,987.8
2018-07-05T03:14:09.187Z,987.79
2018-07-05T03:15:09.131Z,987.83
2018-07-05T03:16:09.124Z,987.83
2018-07-05T03:17:09.137Z,987.84
2018-07-05T03:18:09.127Z,987.83
2018-07-05T03:19:09.123Z,987.81
2018-07-05T03:20:09.119Z,987.78
2018-07-05T03:21:09.128Z,987.78
2018-07-05T03:22:09.124Z,987.76
2018-07-05T03:23:09.139Z,987.76
2018-07-05T03:24:09.119Z,987.76
2018-07-05T03:25:09.121Z,987.71
2018-07-05T03:26:09.122Z,987.71
2018-07-05T03:27:09.131Z,987.77
2018-07-05T03:28:09.134Z,987.77
2018-07-05T03:29:09.130Z,987.79
2018-07-05T03:30:09.143Z,987.81
2018-07-05T03:31:09.133Z,987.75
2018-07-05T03:32:09.140Z,987.77
2018-07-05T03:33:09.142Z,987.74
2018-07-05T03:34:09.140Z,987.73
2018-07-05T03:35:09.149Z,987.73
2018-07-05T03:36:09.149Z,987.68
2018-07-05T03:37:09.148Z,987.71
2018-07-05T03:38:09.132Z,987.69
2018-07-05T03:39:09.158Z,987.72
2018-07-05T03:40:09.141Z,987.69
2018-07-05T03:41:09.150Z,987.65
2018-07-05T03:42:09.153Z,987.69
2018-07-05T03:43:09.153Z,987.64
2018-07-05T03:44:09.140Z,987.66
2018-07-05T03:45:09.141Z,987.69
2018-07-05T03:46:09.154Z,987.71
2018-07-05T03:47:09.153Z,987.73
2018-07-05T03:48:09.178Z,987.74
2018-07-05T03:49:09.159Z,987.72
2018-07-05T03:50:09.157Z,987.77
2018-07-05T03:51:09.151Z,987.74
2018-07-05T03:52:09.167Z,987.81
2018-07-05T03:53:09.155Z,987.84
2018-07-05T03:54:09.165Z,987.84
2018-07-05T03:55:09.168Z,987.84
2018-07-05T03:56:09.156Z,987.88
2018-07-05T03:57:09.154Z,987.91
2018-07-05T03:58:09.166Z,987.96
2018-07-05T03:59:09.158Z,988.03
2018-07-05T04:00:09.163Z,988.09
2018-07-05T04:01:09.176Z,988.09
2018-07-05T04:02:09.172Z,987.98
2018-07-05T04:03:09.163Z,988.04
2018-07-05T04:04:09.172Z,988.03
2018-07-05T04:05:09.163Z,987.98
2018-07-05T04:06:09.176Z,987.96
2018-07-05T04:07:09.181Z,987.92
2018-07-05T04:08:09.175Z,987.97
2018-07-05T04:09:09.173Z,987.94
2018-07-05T04:10:09.178Z,988.02
2018-07-05T04:11:09.176Z,988.01
2018-07-05T04:12:09.186Z,988.02
2018-07-05T04:13:09.183Z,988.06
2018-07-05T04:14:09.184Z,988.12
2018-07-05T04:15:09.199Z,988.13
2018-07-05T04:16:09.203Z,988.13
2018-07-05T04:17:09.207Z,988.14
2018-07-05T04:18:09.215Z,988.18
2018-07-05T04:19:09.200Z,988.14
2018-07-05T04:20:09.205Z,988.1
2018-07-05T04:21:09.214Z,988.13
2018-07-05T04:22:09.224Z,988.21
2018-07-05T04:23:09.205Z,988.16
2018-07-05T04:24:09.278Z,988.16
2018-07-05T04:25:09.203Z,988.17
2018-07-05T04:26:09.206Z,988.15
2018-07-05T04:27:09.224Z,988.15
2018-07-05T04:28:09.216Z,988.15
2018-07-05T04:29:09.220Z,988.15
2018-07-05T04:30:09.224Z,988.12
2018-07-05T04:31:09.221Z,988.12
2018-07-05T04:32:09.222Z,988.13
2018-07-05T04:33:09.224Z,988.19
2018-07-05T04:34:09.277Z,988.09
2018-07-05T04:35:09.224Z,988.13
2018-07-05T04:36:09.223Z,988.05
2018-07-05T04:37:09.228Z,988.03
2018-07-05T04:38:09.235Z,988
2018-07-05T04:39:09.234Z,988.01
2018-07-05T04:40:09.259Z,987.95
2018-07-05T04:41:09.237Z,987.95
2018-07-05T04:42:09.252Z,987.98
2018-07-05T04:43:09.249Z,987.95
2018-07-05T04:44:09.251Z,987.95
2018-07-05T04:45:09.250Z,987.94
2018-07-05T04:46:09.283Z,987.91
2018-07-05T04:47:09.257Z,987.89
2018-07-05T04:48:09.260Z,987.76
2018-07-05T04:49:09.268Z,987.71
2018-07-05T04:50:09.277Z,987.72
2018-07-05T04:51:09.272Z,987.73
2018-07-05T04:52:09.274Z,987.65
2018-07-05T04:53:09.293Z,987.67
2018-07-05T04:54:09.291Z,987.63
2018-07-05T04:55:09.291Z,987.6
2018-07-05T04:56:09.291Z,987.6
2018-07-05T04:57:09.301Z,987.59
2018-07-05T04:58:09.300Z,987.66
2018-07-05T04:59:09.302Z,987.69
2018-07-05T05:00:09.306Z,987.74
2018-07-05T05:01:09.308Z,987.71
2018-07-05T05:02:09.312Z,987.7
2018-07-05T05:03:09.317Z,987.69
2018-07-05T05:04:09.332Z,987.71
2018-07-05T05:05:09.325Z,987.72
2018-07-05T05:06:09.325Z,987.84
2018-07-05T05:07:09.329Z,987.83
2018-07-05T05:08:09.337Z,987.86
2018-07-05T05:09:09.337Z,987.81
2018-07-05T05:10:09.338Z,987.79
2018-07-05T05:11:09.343Z,987.72
2018-07-05T05:12:09.346Z,987.7
2018-07-05T05:13:09.357Z,987.7
2018-07-05T05:14:09.347Z,987.7
2018-07-05T05:15:09.353Z,987.72
2018-07-05T05:16:09.356Z,987.8
2018-07-05T05:17:09.359Z,987.9
2018-07-05T05:18:09.360Z,987.96
2018-07-05T05:19:09.361Z,988.04
2018-07-05T05:20:09.363Z,988.07
2018-07-05T05:21:09.367Z,988.11
2018-07-05T05:22:09.370Z,988.1
2018-07-05T05:23:09.377Z,988.16
2018-07-05T05:24:09.380Z,988.12
2018-07-05T05:25:09.374Z,988.11
2018-07-05T05:26:09.382Z,988.08
2018-07-05T05:27:09.380Z,988.1
2018-07-05T05:28:09.385Z,988.1
2018-07-05T05:29:09.384Z,988.07
2018-07-05T05:30:09.388Z,988.13
2018-07-05T05:31:09.388Z,988.11
2018-07-05T05:32:09.392Z,988.17
2018-07-05T05:33:09.398Z,988.22
2018-07-05T05:34:09.396Z,988.27
2018-07-05T05:35:09.406Z,988.31
2018-07-05T05:36:09.402Z,988.36
2018-07-05T05:37:09.408Z,988.3
2018-07-05T05:38:09.416Z,988.34
2018-07-05T05:39:09.409Z,988.38
2018-07-05T05:40:09.409Z,988.34
2018-07-05T05:41:09.410Z,988.39
2018-07-05T05:42:09.414Z,988.42
2018-07-05T05:43:09.416Z,988.51
2018-07-05T05:44:09.417Z,988.59
2018-07-05T05:45:09.418Z,988.63
2018-07-05T05:46:09.419Z,988.65
2018-07-05T05:47:11.171Z,988.67
2018-07-05T05:48:09.433Z,988.69
2018-07-05T05:49:09.427Z,988.67
2018-07-05T05:50:09.427Z,988.68
2018-07-05T05:51:09.428Z,988.73
2018-07-05T05:52:09.429Z,988.77
2018-07-05T05:53:09.430Z,988.73
2018-07-05T05:54:09.443Z,988.65
2018-07-05T05:55:09.436Z,988.7
2018-07-05T05:56:09.438Z,988.67
2018-07-05T05:57:09.439Z,988.66
2018-07-05T05:58:09.444Z,988.64
2018-07-05T05:59:09.443Z,988.63
2018-07-05T06:00:09.447Z,988.6
2018-07-05T06:01:09.452Z,988.65
2018-07-05T06:02:09.453Z,988.69
2018-07-05T06:03:09.454Z,988.72
2018-07-05T06:04:09.454Z,988.71
2018-07-05T06:05:09.463Z,988.71
2018-07-05T06:06:09.466Z,988.73
2018-07-05T06:07:09.472Z,988.77
2018-07-05T06:08:09.572Z,988.74
2018-07-05T06:09:09.465Z,988.75
2018-07-05T06:10:09.468Z,988.76
2018-07-05T06:11:09.474Z,988.76
2018-07-05T06:12:09.472Z,988.78
2018-07-05T06:13:09.474Z,988.81
2018-07-05T06:14:09.475Z,988.87
2018-07-05T06:24:27.092Z,989.01
2018-07-05T06:25:27.138Z,989.04
2018-07-05T06:26:27.094Z,988.99
2018-07-05T06:27:27.095Z,989
2018-07-05T06:28:27.098Z,988.97
2018-07-05T06:29:27.098Z,988.92
2018-07-05T06:30:27.098Z,988.91
2018-07-05T06:31:27.101Z,988.87
2018-07-05T06:32:27.105Z,988.89
2018-07-05T06:33:27.110Z,988.88
2018-07-05T06:34:27.106Z,988.86
2018-07-05T06:35:27.109Z,988.87
2018-07-05T06:36:27.113Z,988.83
2018-07-05T06:37:27.116Z,988.78
2018-07-05T06:38:27.115Z,988.76
2018-07-05T06:39:27.169Z,988.76
2018-07-05T06:40:27.129Z,988.77
2018-07-05T06:41:27.128Z,988.8
2018-07-05T06:42:27.136Z,988.79
2018-07-05T06:43:27.134Z,988.79
2018-07-05T06:44:27.140Z,988.85
2018-07-05T06:45:27.142Z,988.87
2018-07-05T06:46:27.145Z,988.9
2018-07-05T06:47:27.168Z,988.92
2018-07-05T06:48:27.150Z,988.89
2018-07-05T06:49:27.277Z,988.9
2018-07-05T06:50:27.174Z,988.99
2018-07-05T06:51:27.169Z,988.98
2018-07-05T06:52:27.173Z,989
2018-07-05T06:53:27.170Z,989.05
2018-07-05T06:54:27.175Z,989.09
2018-07-05T06:55:27.179Z,989.03
2018-07-05T06:56:27.185Z,989.14
2018-07-05T06:57:27.187Z,989.09
2018-07-05T06:58:27.191Z,989.01
2018-07-05T06:59:27.196Z,988.99
2018-07-05T07:00:27.203Z,988.95
2018-07-05T07:01:27.205Z,988.97
2018-07-05T07:02:27.218Z,988.88
2018-07-05T07:03:27.225Z,988.87
2018-07-05T07:04:27.222Z,988.85
2018-07-05T07:05:27.226Z,988.85
2018-07-05T07:06:27.235Z,988.86
2018-07-05T07:07:27.248Z,988.82
2018-07-05T07:08:27.244Z,988.78
2018-07-05T07:09:27.248Z,988.77
2018-07-05T07:10:27.255Z,988.75
2018-07-05T07:11:27.261Z,988.7
2018-07-05T07:12:27.264Z,988.67
2018-07-05T07:13:27.270Z,988.65
2018-07-05T07:14:27.276Z,988.67
2018-07-05T07:15:27.280Z,988.65
2018-07-05T07:16:27.285Z,988.66
2018-07-05T07:17:27.292Z,988.66
2018-07-05T07:18:27.300Z,988.65
2018-07-05T07:19:27.298Z,988.63
2018-07-05T07:20:27.308Z,988.64
2018-07-05T07:21:27.328Z,988.65
2018-07-05T07:22:27.314Z,988.65
2018-07-05T07:23:27.320Z,988.71
2018-07-05T07:24:27.325Z,988.67
2018-07-05T07:25:27.330Z,988.66
2018-07-05T07:26:27.335Z,988.68
2018-07-05T07:27:27.349Z,988.56
2018-07-05T07:28:27.346Z,988.59
2018-07-05T07:29:27.357Z,988.52
2018-07-05T07:30:27.362Z,988.54
2018-07-05T07:31:27.593Z,988.53
2018-07-05T07:32:27.367Z,988.47
2018-07-05T07:33:27.374Z,988.49
2018-07-05T07:34:27.383Z,988.46
2018-07-05T07:35:27.393Z,988.45
2018-07-05T07:36:27.397Z,988.39
2018-07-05T07:37:27.431Z,988.41
2018-07-05T07:38:27.402Z,988.4
2018-07-05T07:39:27.406Z,988.4
2018-07-05T07:40:27.412Z,988.41
2018-07-05T07:41:27.427Z,988.41
2018-07-05T07:42:27.426Z,988.36
2018-07-05T07:43:27.428Z,988.37
2018-07-05T07:44:27.432Z,988.33
2018-07-05T07:45:27.515Z,988.32
2018-07-05T07:46:27.444Z,988.36
2018-07-05T07:47:27.445Z,988.39
2018-07-05T07:48:27.449Z,988.38
2018-07-05T07:49:27.456Z,988.36
2018-07-05T07:50:27.470Z,988.38
2018-07-05T07:51:27.467Z,988.37
2018-07-05T07:52:27.470Z,988.36
2018-07-05T07:53:27.479Z,988.38
2018-07-05T07:54:27.478Z,988.39
2018-07-05T07:55:27.483Z,988.39
2018-07-05T07:56:27.493Z,988.4
2018-07-05T07:57:27.495Z,988.41
2018-07-05T07:58:27.501Z,988.43
2018-07-05T07:59:27.504Z,988.48
2018-07-05T08:00:27.516Z,988.51
2018-07-05T08:01:27.513Z,988.52
2018-07-05T08:02:27.520Z,988.52
2018-07-05T08:03:27.522Z,988.57
2018-07-05T08:04:27.526Z,988.52
2018-07-05T08:05:27.531Z,988.55
2018-07-05T08:06:27.535Z,988.56
2018-07-05T08:07:27.539Z,988.6
2018-07-05T08:08:27.543Z,988.54
2018-07-05T08:09:27.550Z,988.58
2018-07-05T08:10:27.552Z,988.61
2018-07-05T08:11:27.561Z,988.6
2018-07-05T08:12:27.560Z,988.62
2018-07-05T08:13:27.564Z,988.62
2018-07-05T08:14:27.570Z,988.65
2018-07-05T08:15:27.572Z,988.65
2018-07-05T08:16:27.580Z,988.66
2018-07-05T08:17:27.582Z,988.7
2018-07-05T08:18:27.594Z,988.67
2018-07-05T08:19:27.599Z,988.67
2018-07-05T08:20:27.659Z,988.66
2018-07-05T08:21:27.605Z,988.71
2018-07-05T08:22:27.603Z,988.69
2018-07-05T08:23:27.609Z,988.68
2018-07-05T08:24:27.613Z,988.7
2018-07-05T08:25:27.616Z,988.72
2018-07-05T08:26:27.622Z,988.69
2018-07-05T08:27:27.627Z,988.67
2018-07-05T08:28:27.628Z,988.65
2018-07-05T08:29:27.635Z,988.73
2018-07-05T08:30:27.649Z,988.73
2018-07-05T08:31:27.666Z,988.75
2018-07-05T08:32:27.661Z,988.8
2018-07-05T08:33:27.657Z,988.8
2018-07-05T08:34:27.664Z,988.76
2018-07-05T08:35:27.679Z,988.75
2018-07-05T08:36:27.671Z,988.74
2018-07-05T08:37:27.666Z,988.79
2018-07-05T08:38:27.685Z,988.79
2018-07-05T08:39:27.676Z,988.81
2018-07-05T08:40:27.681Z,988.85
2018-07-05T08:41:27.688Z,988.82
2018-07-05T08:42:27.690Z,988.83
2018-07-05T08:43:27.693Z,988.83
2018-07-05T08:44:27.711Z,988.86
2018-07-05T08:45:27.706Z,988.85
2018-07-05T08:46:27.708Z,988.82
2018-07-05T08:47:27.713Z,988.83
2018-07-05T08:48:27.718Z,988.85
2018-07-05T08:49:27.722Z,988.87
2018-07-05T08:50:27.728Z,988.86
2018-07-05T08:51:27.736Z,988.84
2018-07-05T08:52:27.758Z,988.85
2018-07-05T08:53:27.744Z,988.84
2018-07-05T08:54:27.750Z,988.84
2018-07-05T08:55:27.750Z,988.87
2018-07-05T08:56:27.763Z,988.87
2018-07-05T08:57:27.758Z,988.83
2018-07-05T08:58:27.762Z,988.85
2018-07-05T08:59:27.767Z,988.91
2018-07-05T09:00:27.774Z,988.89
2018-07-05T09:01:27.777Z,988.89
2018-07-05T09:02:27.785Z,988.88
2018-07-05T09:03:27.785Z,988.82
2018-07-05T09:04:27.787Z,988.83
2018-07-05T09:05:27.793Z,988.83
2018-07-05T09:06:27.799Z,988.81
2018-07-05T09:07:27.801Z,988.81
2018-07-05T09:08:27.807Z,988.8
2018-07-05T09:09:27.812Z,988.77
2018-07-05T09:10:27.821Z,988.78
2018-07-05T09:11:27.827Z,988.78
2018-07-05T09:12:27.830Z,988.74
2018-07-05T09:13:27.835Z,988.77
2018-07-05T09:14:27.832Z,988.79
2018-07-05T09:15:27.841Z,988.77
2018-07-05T09:16:27.842Z,988.82
2018-07-05T09:17:27.930Z,988.76
2018-07-05T09:18:27.986Z,988.78
2018-07-05T09:19:27.857Z,988.82
2018-07-05T09:20:27.860Z,988.85
2018-07-05T09:21:27.865Z,988.88
2018-07-05T09:22:27.871Z,988.92
2018-07-05T09:23:28.038Z,988.88
2018-07-05T09:24:27.881Z,988.9
2018-07-05T09:25:27.885Z,988.88
2018-07-05T09:26:27.891Z,988.94
2018-07-05T09:27:27.894Z,988.9
2018-07-05T09:28:27.906Z,988.91
2018-07-05T09:29:27.911Z,988.89
2018-07-05T09:30:27.907Z,988.9
2018-07-05T09:31:27.915Z,988.87
2018-07-05T09:32:27.917Z,988.9
2018-07-05T09:33:27.921Z,988.93
2018-07-05T09:34:27.929Z,988.88
2018-07-05T09:35:27.933Z,988.89
2018-07-05T09:36:27.936Z,988.91
2018-07-05T09:37:27.942Z,988.87
2018-07-05T09:38:27.949Z,988.88
2018-07-05T09:39:27.950Z,988.94
2018-07-05T09:40:27.958Z,988.94
2018-07-05T09:41:27.965Z,988.96
2018-07-05T09:42:27.965Z,989.01
2018-07-05T09:43:27.969Z,989.02
2018-07-05T09:44:27.976Z,989.06
2018-07-05T09:45:27.980Z,989.09
2018-07-05T09:46:27.985Z,989.03
2018-07-05T09:47:27.993Z,989.03
2018-07-05T09:48:27.991Z,989.05
2018-07-05T09:49:28.029Z,989.06
2018-07-05T09:50:28.008Z,989.08
2018-07-05T09:51:28.009Z,989.06
2018-07-05T09:52:28.078Z,989.03
2018-07-05T09:53:28.017Z,989.02
2018-07-05T09:54:28.024Z,988.96
2018-07-05T09:55:28.024Z,989.01
2018-07-05T09:56:28.031Z,989.03
2018-07-05T09:57:28.033Z,989
2018-07-05T09:58:28.041Z,989.04
2018-07-05T09:59:28.040Z,988.99
2018-07-05T10:00:28.062Z,989.02
2018-07-05T10:01:28.056Z,989.05
2018-07-05T10:02:28.055Z,989.05
2018-07-05T10:03:28.115Z,989.09
2018-07-05T10:04:28.064Z,989.07
2018-07-05T10:05:28.066Z,989.13
2018-07-05T10:06:28.069Z,989.15
2018-07-05T10:07:28.072Z,989.21
2018-07-05T10:08:28.078Z,989.21
2018-07-05T10:09:28.083Z,989.25
2018-07-05T10:10:28.087Z,989.26
2018-07-05T10:11:28.089Z,989.29
2018-07-05T10:12:28.093Z,989.28
2018-07-05T10:13:28.206Z,989.29
2018-07-05T10:14:28.110Z,989.32
2018-07-05T10:15:28.108Z,989.28
2018-07-05T10:16:28.107Z,989.34
2018-07-05T10:17:28.111Z,989.36
2018-07-05T10:18:28.115Z,989.34
2018-07-05T10:19:28.137Z,989.38
2018-07-05T10:20:28.129Z,989.36
2018-07-05T10:21:28.126Z,989.34
2018-07-05T10:22:28.128Z,989.34
2018-07-05T10:53:57.463Z,989.6
2018-07-05T10:54:57.459Z,989.6
2018-07-05T10:55:57.462Z,989.58
2018-07-05T10:56:57.457Z,989.58
2018-07-05T10:57:57.459Z,989.56
2018-07-05T10:58:57.461Z,989.54
2018-07-05T10:59:57.459Z,989.53
2018-07-05T11:00:57.458Z,989.59
2018-07-05T11:01:57.463Z,989.56
2018-07-05T11:02:57.460Z,989.55
2018-07-05T11:03:57.464Z,989.56
2018-07-05T11:04:57.463Z,989.56
2018-07-05T11:05:57.465Z,989.56
2018-07-05T11:06:57.467Z,989.56
2018-07-05T11:07:57.467Z,989.6
2018-07-05T11:08:57.471Z,989.57
2018-07-05T11:09:57.470Z,989.56
2018-07-05T11:10:57.472Z,989.55
2018-07-05T11:11:57.475Z,989.56
2018-07-05T11:12:57.486Z,989.59
2018-07-05T11:13:57.479Z,989.62
2018-07-05T11:14:57.490Z,989.65
2018-07-05T11:15:57.485Z,989.67
2018-07-05T11:16:57.491Z,989.69
2018-07-05T11:17:57.499Z,989.72
2018-07-05T11:18:57.493Z,989.73
2018-07-05T11:19:57.498Z,989.72
2018-07-05T11:20:57.508Z,989.72
2018-07-05T11:21:57.501Z,989.74
2018-07-05T11:22:57.541Z,989.75
2018-07-05T11:23:57.507Z,989.77
2018-07-05T11:24:57.512Z,989.79
2018-07-05T11:25:57.518Z,989.8
2018-07-05T11:26:57.522Z,989.76
2018-07-05T11:27:57.519Z,989.77
2018-07-05T11:28:57.528Z,989.8
2018-07-05T11:29:57.527Z,989.8
2018-07-05T11:30:57.538Z,989.81
2018-07-05T11:31:57.549Z,989.86
2018-07-05T11:32:57.538Z,989.84
2018-07-05T11:33:57.539Z,989.81
2018-07-05T11:34:57.544Z,989.82
2018-07-05T11:35:57.544Z,989.8
2018-07-05T11:36:57.549Z,989.77
2018-07-05T11:37:57.560Z,989.74
2018-07-05T11:38:57.569Z,989.7
2018-07-05T11:39:57.565Z,989.69
2018-07-05T11:40:57.567Z,989.71
2018-07-05T11:41:57.567Z,989.68
2018-07-05T11:42:57.571Z,989.7
2018-07-05T11:43:57.577Z,989.7
2018-07-05T11:44:57.579Z,989.68
2018-07-05T11:45:57.583Z,989.7
2018-07-05T11:46:57.589Z,989.69
2018-07-05T11:47:57.674Z,989.71
2018-07-05T11:48:57.604Z,989.71
2018-07-05T11:49:57.598Z,989.67
2018-07-05T11:50:57.602Z,989.68
2018-07-05T11:51:57.608Z,989.68
2018-07-05T11:52:57.611Z,989.62
2018-07-05T11:53:58.416Z,989.66
2018-07-05T11:54:57.618Z,989.61
2018-07-05T11:55:57.619Z,989.61
2018-07-05T11:56:57.628Z,989.56
2018-07-05T11:57:57.632Z,989.57
2018-07-05T11:58:57.637Z,989.56
2018-07-05T11:59:57.635Z,989.58
2018-07-05T12:00:57.645Z,989.56
2018-07-05T12:01:57.673Z,989.63
2018-07-05T12:02:57.725Z,989.59
2018-07-05T12:03:57.653Z,989.6
2018-07-05T12:04:57.655Z,989.58
2018-07-05T12:05:57.660Z,989.56
2018-07-05T12:06:57.664Z,989.52
2018-07-05T12:07:57.664Z,989.56
2018-07-05T12:08:57.683Z,989.57
2018-07-05T12:09:57.683Z,989.58
2018-07-05T12:10:57.706Z,989.58
2018-07-05T12:11:57.686Z,989.63
2018-07-05T12:12:57.685Z,989.59
2018-07-05T12:13:57.688Z,989.64
2018-07-05T12:14:57.691Z,989.59
2018-07-05T12:15:57.694Z,989.6
2018-07-05T12:16:57.698Z,989.61
2018-07-05T12:17:57.701Z,989.62
2018-07-05T12:18:57.709Z,989.57
2018-07-05T12:19:57.716Z,989.64
2018-07-05T12:20:57.714Z,989.58
2018-07-05T12:21:57.721Z,989.59
2018-07-05T12:22:57.721Z,989.61
2018-07-05T12:23:57.749Z,989.62
2018-07-05T12:24:57.731Z,989.61
2018-07-05T12:25:57.744Z,989.54
2018-07-05T12:26:57.748Z,989.52
2018-07-05T12:27:57.755Z,989.51
2018-07-05T12:28:57.798Z,989.54
2018-07-05T12:29:57.765Z,989.51
2018-07-05T12:30:57.763Z,989.54
2018-07-05T12:31:57.765Z,989.57
2018-07-05T12:32:57.766Z,989.55
2018-07-05T12:33:57.772Z,989.53
2018-07-05T12:34:57.771Z,989.57
2018-07-05T12:35:57.788Z,989.58
2018-07-05T12:36:57.781Z,989.57
2018-07-05T12:37:57.787Z,989.51
2018-07-05T12:38:57.788Z,989.58
2018-07-05T12:39:57.792Z,989.53
2018-07-05T12:40:57.798Z,989.54
2018-07-05T12:41:57.818Z,989.51
2018-07-05T12:42:57.814Z,989.5
2018-07-05T12:43:57.814Z,989.51
2018-07-05T12:44:57.811Z,989.49
2018-07-05T12:45:57.817Z,989.51
2018-07-05T12:46:57.819Z,989.52
2018-07-05T12:47:57.823Z,989.52
2018-07-05T12:48:57.827Z,989.5
2018-07-05T12:49:57.834Z,989.47
2018-07-05T12:50:57.839Z,989.45
2018-07-05T12:51:57.910Z,989.46
2018-07-05T12:52:57.847Z,989.41
2018-07-05T12:53:57.850Z,989.39
2018-07-05T12:54:57.849Z,989.37
2018-07-05T12:55:57.860Z,989.36
2018-07-05T12:56:57.865Z,989.31
2018-07-05T12:57:57.863Z,989.33
2018-07-05T12:58:57.880Z,989.28
2018-07-05T12:59:57.873Z,989.3
2018-07-05T13:00:57.881Z,989.29
2018-07-05T13:01:57.885Z,989.25
2018-07-05T13:02:57.890Z,989.23
2018-07-05T13:03:57.915Z,989.23
2018-07-05T13:04:57.896Z,989.23
2018-07-05T13:05:57.898Z,989.24
2018-07-05T13:06:57.903Z,989.24
2018-07-05T13:07:57.906Z,989.25
2018-07-05T13:08:57.913Z,989.24
2018-07-05T13:09:57.914Z,989.21
2018-07-05T13:10:57.929Z,989.2